Time;durP1;ratioP1;P1;durP2;ratioP2;P2;SDS_P1;SDS_P2;PMS_P1;PMS_P2;Temp;Humidity;BMP_temperature;BMP_pressure;BME280_temperature;BME280_humidity;BME280_pressure;Samples;Min_cycle;Max_cycle;Signal;HPM_P1;HPM_P2
2023/12/23 00:02:17;;;;;;;22.65;11.95;;;;;;;2.08;77.88;96946.78;4860114;29;20052;-68
2023/12/23 00:04:46;;;;;;;24.13;11.80;;;;;;;2.19;78.25;96935.44;4876631;29;20090;-67
2023/12/23 00:07:14;;;;;;;23.45;11.63;;;;;;;2.26;78.46;96945.53;4873694;29;20432;-68
2023/12/23 00:09:43;;;;;;;20.85;9.98;;;;;;;2.24;78.58;96923.34;4861741;29;20117;-69
2023/12/23 00:12:12;;;;;;;23.80;11.60;;;;;;;2.40;78.02;96936.72;4863227;29;20106;-68
2023/12/23 00:14:43;;;;;;;19.10;10.38;;;;;;;2.57;78.47;96964.56;4876672;29;20102;-68
2023/12/23 00:17:17;;;;;;;18.25;9.40;;;;;;;2.55;77.30;96954.34;4858962;29;20052;-69
2023/12/23 00:19:43;;;;;;;19.63;9.32;;;;;;;2.56;78.10;96947.47;4873460;29;20388;-69
2023/12/23 00:22:09;;;;;;;18.17;9.23;;;;;;;2.36;77.53;96927.38;4875722;29;20045;-68
2023/12/23 00:24:36;;;;;;;19.25;10.10;;;;;;;2.49;78.12;96940.78;4859477;29;20140;-69
2023/12/23 00:27:02;;;;;;;22.42;8.82;;;;;;;2.53;77.15;96945.00;4873901;29;20045;-69
2023/12/23 00:29:29;;;;;;;17.05;8.55;;;;;;;2.43;77.06;96939.19;4874777;29;20516;-69
2023/12/23 00:32:01;;;;;;;17.35;9.18;;;;;;;1.77;77.33;96842.25;4862441;29;20103;-69
2023/12/23 00:34:27;;;;;;;15.98;8.38;;;;;;;2.40;77.31;96939.28;4874265;29;20041;-69
2023/12/23 00:36:54;;;;;;;14.65;7.75;;;;;;;2.42;77.65;96929.81;4862921;29;20055;-70
2023/12/23 00:39:20;;;;;;;17.42;8.48;;;;;;;1.88;78.07;96820.66;4861292;29;20048;-68
2023/12/23 00:41:46;;;;;;;17.33;8.38;;;;;;;2.50;77.28;96914.25;4873530;29;20053;-68
2023/12/23 00:44:12;;;;;;;20.67;9.35;;;;;;;2.23;77.31;96878.03;4859973;29;20052;-68
2023/12/23 00:46:41;;;;;;;17.63;8.50;;;;;;;2.26;77.70;96875.41;4858313;29;20057;-69
2023/12/23 00:49:09;;;;;;;17.10;8.73;;;;;;;2.31;77.44;96865.03;4872407;29;22169;-68
2023/12/23 00:51:36;;;;;;;17.25;8.40;;;;;;;2.35;77.32;96851.28;4872081;29;20045;-69
2023/12/23 00:54:05;;;;;;;14.50;7.97;;;;;;;2.39;77.41;96852.88;4873915;29;20038;-69
2023/12/23 00:56:34;;;;;;;16.95;8.48;;;;;;;2.46;76.98;96889.53;4858975;29;20073;-69
2023/12/23 00:59:03;;;;;;;15.48;8.45;;;;;;;2.07;77.23;96841.63;4845000;29;20049;-68
2023/12/23 01:01:31;;;;;;;17.50;8.43;;;;;;;1.91;76.97;96829.13;4873858;29;20037;-72
2023/12/23 01:03:57;;;;;;;16.40;8.98;;;;;;;2.16;77.48;96849.13;4875341;29;20053;-68
2023/12/23 01:06:23;;;;;;;16.73;8.35;;;;;;;2.48;77.10;96913.44;4871670;29;20045;-69
2023/12/23 01:08:49;;;;;;;19.15;8.85;;;;;;;2.25;76.62;96884.00;4879311;29;20048;-68
2023/12/23 01:11:16;;;;;;;17.00;8.68;;;;;;;2.31;77.30;96881.31;4874469;29;20044;-67
2023/12/23 01:13:42;;;;;;;18.85;8.90;;;;;;;2.40;77.27;96864.84;4828518;29;20061;-69
2023/12/23 01:16:08;;;;;;;20.90;8.88;;;;;;;2.20;77.24;96826.78;4862230;29;20083;-69
2023/12/23 01:18:34;;;;;;;16.00;8.07;;;;;;;2.49;76.80;96876.63;4848763;29;20182;-68
2023/12/23 01:21:04;;;;;;;16.38;8.88;;;;;;;2.47;77.35;96860.41;4861110;29;20066;-71
2023/12/23 01:23:39;;;;;;;16.52;8.57;;;;;;;2.40;77.05;96849.44;4850727;29;20132;-69
2023/12/23 01:26:10;;;;;;;16.38;7.78;;;;;;;2.30;77.15;96833.41;4871633;29;20056;-67
2023/12/23 01:28:36;;;;;;;13.38;7.07;;;;;;;2.47;76.87;96870.69;4860746;29;20626;-68
2023/12/23 01:31:02;;;;;;;16.73;8.52;;;;;;;2.45;77.25;96855.28;4874638;29;20037;-69
2023/12/23 01:33:34;;;;;;;18.65;8.90;;;;;;;2.24;77.37;96803.59;4828191;29;20478;-70
2023/12/23 01:36:05;;;;;;;17.98;9.55;;;;;;;2.12;77.25;96783.34;4872591;29;20039;-70
2023/12/23 01:38:34;;;;;;;17.65;8.73;;;;;;;2.11;77.18;96785.06;4862734;29;20052;-70
2023/12/23 01:41:00;;;;;;;18.52;8.60;;;;;;;1.88;76.87;96757.38;4843504;29;20041;-70
2023/12/23 01:43:28;;;;;;;19.30;9.10;;;;;;;2.35;77.09;96816.16;4858282;29;20049;-70
2023/12/23 01:45:59;;;;;;;15.60;8.32;;;;;;;2.53;77.76;96826.91;4842058;29;20037;-69
2023/12/23 01:48:29;;;;;;;19.65;8.75;;;;;;;2.52;76.70;96808.06;4872206;29;20049;-69
2023/12/23 01:50:58;;;;;;;21.10;9.65;;;;;;;2.36;76.94;96794.75;4872432;29;20045;-70
2023/12/23 01:53:36;;;;;;;20.35;10.18;;;;;;;2.44;76.62;96809.13;4872538;29;20055;-70
2023/12/23 01:56:05;;;;;;;24.85;11.40;;;;;;;2.28;77.25;96781.28;4859045;29;20270;-70
2023/12/23 01:58:32;;;;;;;25.20;11.50;;;;;;;2.32;76.86;96800.84;4873139;29;20052;-70
2023/12/23 02:01:02;;;;;;;29.00;12.05;;;;;;;2.29;77.40;96777.84;4872025;29;20045;-70
2023/12/23 02:03:32;;;;;;;26.20;11.15;;;;;;;2.41;76.82;96795.50;4857280;29;20061;-69
2023/12/23 02:05:59;;;;;;;25.83;11.35;;;;;;;2.19;77.30;96746.44;4869165;29;20049;-69
2023/12/23 02:08:25;;;;;;;22.50;10.38;;;;;;;2.42;77.32;96791.22;4858582;29;20048;-71
2023/12/23 02:11:04;;;;;;;23.38;9.57;;;;;;;2.40;76.93;96787.84;4858381;29;20043;-70
2023/12/23 02:13:56;;;;;;;21.98;9.95;;;;;;;2.20;77.20;96760.09;4857864;29;20501;-69
2023/12/23 02:16:23;;;;;;;20.60;9.45;;;;;;;2.17;76.99;96757.59;4846651;29;20072;-69
2023/12/23 02:18:54;;;;;;;20.27;9.43;;;;;;;2.33;77.57;96763.19;4858852;29;20045;-67
2023/12/23 02:21:20;;;;;;;17.85;8.45;;;;;;;2.29;77.30;96753.88;4860650;29;20052;-71
2023/12/23 02:23:46;;;;;;;16.88;8.13;;;;;;;2.26;77.26;96765.91;4871455;29;20048;-69
2023/12/23 02:26:19;;;;;;;16.50;7.43;;;;;;;2.31;77.44;96767.53;4855867;29;20416;-69
2023/12/23 02:28:51;;;;;;;19.08;6.68;;;;;;;2.37;76.73;96775.09;4858263;29;20130;-70
2023/12/23 02:31:25;;;;;;;17.33;7.50;;;;;;;2.37;77.49;96805.88;4872353;29;20051;-69
2023/12/23 02:33:54;;;;;;;14.75;7.15;;;;;;;2.09;77.97;96737.25;4858456;29;20524;-69
2023/12/23 02:36:25;;;;;;;13.15;7.22;;;;;;;2.16;77.42;96755.91;4857069;29;20072;-71
2023/12/23 02:38:55;;;;;;;11.15;5.85;;;;;;;2.24;77.64;96759.97;4858252;29;20040;-69
2023/12/23 02:41:28;;;;;;;15.15;7.05;;;;;;;2.11;77.33;96750.88;4846712;29;20132;-69
2023/12/23 02:43:54;;;;;;;15.38;7.45;;;;;;;1.98;77.68;96734.13;4857302;29;20040;-69
2023/12/23 02:46:21;;;;;;;15.23;7.85;;;;;;;2.27;78.16;96766.75;4857919;29;20045;-67
2023/12/23 02:48:47;;;;;;;16.38;8.43;;;;;;;2.00;77.85;96717.78;4857880;29;20037;-69
2023/12/23 02:51:14;;;;;;;20.27;8.80;;;;;;;2.35;78.52;96764.00;4860418;29;20543;-69
2023/12/23 02:53:40;;;;;;;13.23;7.10;;;;;;;2.35;77.75;96764.84;4830868;29;20044;-69
2023/12/23 02:56:06;;;;;;;17.67;8.50;;;;;;;2.03;77.97;96716.88;4858642;29;20056;-68
2023/12/23 02:58:41;;;;;;;14.10;6.80;;;;;;;2.01;78.47;96709.22;4857437;29;20044;-68
2023/12/23 03:01:08;;;;;;;11.73;6.15;;;;;;;2.22;77.79;96743.75;4846886;29;20106;-67
2023/12/23 03:03:34;;;;;;;10.98;6.32;;;;;;;2.18;78.12;96736.19;4858206;29;20053;-67
2023/12/23 03:06:03;;;;;;;12.68;5.70;;;;;;;2.22;78.11;96755.75;4875759;29;20064;-68
2023/12/23 03:08:32;;;;;;;10.02;5.30;;;;;;;1.89;77.68;96712.06;4845934;29;20401;-68
2023/12/23 03:10:58;;;;;;;9.52;5.10;;;;;;;2.10;78.20;96749.19;4873784;29;20103;-68
2023/12/23 03:13:25;;;;;;;8.93;5.45;;;;;;;1.78;77.87;96697.78;4846753;29;20453;-67
2023/12/23 03:15:51;;;;;;;11.60;5.93;;;;;;;2.11;78.45;96754.28;4877341;29;20089;-67
2023/12/23 03:18:18;;;;;;;9.30;5.53;;;;;;;1.91;78.61;96716.28;4872606;29;20106;-68
2023/12/23 03:20:47;;;;;;;10.35;5.60;;;;;;;2.02;78.31;96720.31;4873848;29;20048;-69
2023/12/23 03:23:13;;;;;;;9.30;5.10;;;;;;;2.05;77.90;96728.78;4873029;29;20573;-69
2023/12/23 03:25:40;;;;;;;11.18;5.30;;;;;;;2.03;78.68;96720.28;4842218;29;20080;-68
2023/12/23 03:30:58;;;;;;;9.18;6.05;;;;;;;2.25;78.83;96732.59;4863172;29;20048;-69
2023/12/23 03:33:24;;;;;;;8.32;5.13;;;;;;;2.07;78.04;96706.53;4852599;29;20049;-68
2023/12/23 03:35:57;;;;;;;11.07;6.68;;;;;;;2.06;78.87;96704.84;4860219;29;20056;-68
2023/12/23 03:38:23;;;;;;;9.05;5.60;;;;;;;2.31;78.38;96739.28;4859611;29;20140;-68
2023/12/23 03:40:49;;;;;;;9.18;5.20;;;;;;;2.04;78.77;96695.47;4846102;29;20109;-68
2023/12/23 03:43:15;;;;;;;8.32;4.93;;;;;;;2.28;78.75;96736.81;4875370;29;20049;-69
2023/12/23 03:45:42;;;;;;;8.93;4.90;;;;;;;1.94;78.23;96697.41;4875698;29;20404;-68
2023/12/23 03:48:18;;;;;;;8.15;5.10;;;;;;;2.11;78.85;96715.81;4874210;29;20468;-68
2023/12/23 03:50:47;;;;;;;8.80;5.20;;;;;;;2.35;78.94;96752.00;4843449;29;20125;-69
2023/12/23 03:53:14;;;;;;;8.18;5.03;;;;;;;2.33;78.82;96734.97;4873982;29;20530;-69
2023/12/23 03:55:44;;;;;;;8.07;4.07;;;;;;;2.33;78.55;96729.84;4871048;29;20424;-71
2023/12/23 03:58:10;;;;;;;6.47;3.72;;;;;;;2.55;79.33;96753.22;4847262;29;20038;-69
2023/12/23 04:00:36;;;;;;;7.88;4.35;;;;;;;2.39;78.92;96720.25;4862727;29;20416;-71
2023/12/23 04:03:02;;;;;;;6.15;3.90;;;;;;;2.54;78.80;96736.13;4846847;29;20128;-71
2023/12/23 04:05:28;;;;;;;7.20;3.92;;;;;;;2.52;78.53;96743.06;4848337;29;20132;-70
2023/12/23 04:07:57;;;;;;;5.47;3.58;;;;;;;2.59;78.05;96762.53;4865202;29;20044;-70
2023/12/23 04:10:24;;;;;;;6.10;3.70;;;;;;;2.45;78.68;96746.66;4860577;29;20155;-69
2023/12/23 04:12:50;;;;;;;5.95;3.97;;;;;;;2.44;78.88;96752.66;4859963;29;20049;-70
2023/12/23 04:15:16;;;;;;;7.10;4.13;;;;;;;2.41;78.77;96749.28;4858623;29;20072;-71
2023/12/23 04:17:42;;;;;;;8.13;5.32;;;;;;;2.54;78.96;96761.81;4862129;29;20075;-72
2023/12/23 04:20:09;;;;;;;9.27;5.40;;;;;;;2.44;79.22;96725.25;4849954;29;20049;-71
2023/12/23 04:22:38;;;;;;;7.90;5.22;;;;;;;2.36;78.45;96715.19;4862078;29;20106;-71
2023/12/23 04:25:07;;;;;;;8.35;4.95;;;;;;;2.39;79.05;96717.69;4876751;29;20041;-67
2023/12/23 04:27:34;;;;;;;9.32;5.25;;;;;;;2.48;78.47;96718.34;4876333;29;20117;-69
2023/12/23 04:30:03;;;;;;;9.20;4.88;;;;;;;2.63;78.73;96733.34;4860529;29;20041;-68
2023/12/23 04:32:30;;;;;;;7.70;4.55;;;;;;;2.69;78.77;96740.91;4857566;29;20040;-68
2023/12/23 04:34:56;;;;;;;9.88;4.53;;;;;;;2.62;78.37;96735.97;4859014;29;20048;-68
2023/12/23 04:37:31;;;;;;;8.95;4.82;;;;;;;2.65;78.42;96762.41;4859846;29;20056;-68
2023/12/23 04:40:03;;;;;;;8.98;5.45;;;;;;;2.46;78.75;96723.50;4845693;29;20507;-68
2023/12/23 04:42:29;;;;;;;7.32;4.57;;;;;;;2.70;79.11;96758.00;4860054;29;20045;-68
2023/12/23 04:44:55;;;;;;;10.05;5.95;;;;;;;2.77;78.69;96750.09;4861605;29;20038;-67
2023/12/23 04:47:24;;;;;;;10.60;5.72;;;;;;;2.51;78.88;96700.31;4873580;29;20117;-69
2023/12/23 04:49:55;;;;;;;10.27;5.63;;;;;;;2.66;78.51;96729.84;4874467;29;20099;-70
2023/12/23 04:52:21;;;;;;;12.38;6.20;;;;;;;2.53;78.53;96711.38;4893712;29;20112;-68
2023/12/23 04:54:50;;;;;;;10.57;5.88;;;;;;;2.68;79.03;96730.66;4832540;29;20040;-69
2023/12/23 04:57:16;;;;;;;9.30;5.60;;;;;;;2.77;79.34;96737.25;4876441;29;20437;-67
2023/12/23 04:59:45;;;;;;;12.13;5.80;;;;;;;2.84;78.64;96755.06;4849091;29;20644;-67
2023/12/23 05:02:11;;;;;;;10.73;6.40;;;;;;;2.83;79.20;96742.25;4832850;29;20052;-69
2023/12/23 05:04:38;;;;;;;11.95;6.30;;;;;;;2.81;78.36;96749.16;4863179;29;20082;-71
2023/12/23 05:07:04;;;;;;;12.52;5.63;;;;;;;2.88;78.53;96772.94;4877571;29;20041;-72
2023/12/23 05:09:34;;;;;;;9.77;5.82;;;;;;;2.54;78.75;96697.63;4859951;29;20041;-70
2023/12/23 05:12:06;;;;;;;11.63;6.80;;;;;;;2.85;78.80;96759.31;4876868;29;20045;-71
2023/12/23 05:14:32;;;;;;;12.98;6.80;;;;;;;2.93;78.59;96745.41;4863772;29;20181;-72
2023/12/23 05:17:01;;;;;;;12.40;6.40;;;;;;;2.84;78.86;96715.69;4851583;29;20507;-73
2023/12/23 05:19:30;;;;;;;12.73;6.93;;;;;;;2.93;78.65;96732.56;4877465;29;20408;-72
2023/12/23 05:22:07;;;;;;;13.57;6.80;;;;;;;3.00;79.06;96758.03;4875521;29;20125;-70
2023/12/23 05:24:37;;;;;;;13.95;6.90;;;;;;;2.80;78.19;96725.22;4876480;29;20145;-71
2023/12/23 05:27:04;;;;;;;12.75;7.03;;;;;;;2.69;78.14;96717.78;4860323;29;20053;-73
2023/12/23 05:29:31;;;;;;;11.95;6.28;;;;;;;2.83;78.41;96730.25;4876889;29;20047;-71
2023/12/23 05:31:57;;;;;;;12.32;6.93;;;;;;;2.93;78.20;96753.97;4862411;29;20082;-72
2023/12/23 05:34:26;;;;;;;11.82;6.28;;;;;;;2.94;79.04;96752.22;4859662;29;20080;-72
2023/12/23 05:36:52;;;;;;;12.40;6.72;;;;;;;2.72;78.22;96696.31;4856871;29;20056;-71
2023/12/23 05:39:19;;;;;;;13.02;7.05;;;;;;;2.68;78.80;96692.13;4854767;29;20049;-69
2023/12/23 05:41:45;;;;;;;12.48;6.55;;;;;;;3.10;78.71;96755.22;4859742;29;20040;-71
2023/12/23 05:44:12;;;;;;;13.07;6.97;;;;;;;3.11;78.57;96751.78;4863247;29;20048;-71
2023/12/23 05:46:38;;;;;;;14.82;7.47;;;;;;;2.86;78.30;96719.91;4864062;29;20049;-70
2023/12/23 05:49:04;;;;;;;14.20;7.15;;;;;;;3.07;77.69;96755.31;4848857;29;20125;-71
2023/12/23 05:51:43;;;;;;;14.40;7.55;;;;;;;2.54;78.70;96661.69;4848802;29;20052;-71
2023/12/23 05:54:12;;;;;;;13.68;7.35;;;;;;;2.88;77.93;96716.44;4878120;29;20057;-70
2023/12/23 05:56:38;;;;;;;14.40;6.78;;;;;;;2.78;77.88;96715.84;4874762;29;20037;-71
2023/12/23 05:59:04;;;;;;;14.45;7.95;;;;;;;3.02;79.18;96732.31;4864244;29;20044;-72
2023/12/23 06:01:33;;;;;;;16.20;7.93;;;;;;;2.94;78.51;96719.69;4878262;29;20532;-71
2023/12/23 06:03:59;;;;;;;15.68;8.25;;;;;;;3.20;78.16;96774.63;4877916;29;20053;-71
2023/12/23 06:06:25;;;;;;;15.23;7.60;;;;;;;3.09;78.06;96750.97;4876851;29;20068;-71
2023/12/23 06:08:54;;;;;;;19.17;9.05;;;;;;;2.93;77.73;96760.81;4859497;29;20068;-70
2023/12/23 06:11:19;;;;;;;16.08;8.35;;;;;;;3.03;78.63;96753.72;4878427;29;20512;-71
2023/12/23 06:13:45;;;;;;;16.00;8.30;;;;;;;2.96;77.87;96738.47;4863984;29;20040;-72
2023/12/23 06:16:14;;;;;;;19.73;8.73;;;;;;;2.38;77.51;96668.97;4875891;29;20045;-69
2023/12/23 06:18:40;;;;;;;17.25;8.70;;;;;;;3.17;78.13;96778.16;4847211;29;20048;-69
2023/12/23 06:21:17;;;;;;;16.80;8.10;;;;;;;3.19;77.96;96788.41;4874574;29;20045;-70
2023/12/23 06:23:44;;;;;;;18.27;8.52;;;;;;;3.16;77.86;96798.75;4845765;29;20407;-70
2023/12/23 06:26:11;;;;;;;20.90;9.70;;;;;;;3.09;78.11;96784.38;4859825;29;20538;-69
2023/12/23 06:28:40;;;;;;;21.95;8.98;;;;;;;2.81;77.97;96744.00;4873209;29;20037;-70
2023/12/23 06:31:07;;;;;;;20.88;9.98;;;;;;;2.99;77.38;96765.81;4858715;29;20113;-69
2023/12/23 06:33:36;;;;;;;22.52;9.88;;;;;;;2.68;78.50;96716.09;4873715;29;20060;-69
2023/12/23 06:36:22;;;;;;;17.35;8.13;;;;;;;2.88;77.67;96757.53;4873138;29;20045;-69
2023/12/23 06:38:51;;;;;;;19.08;9.50;;;;;;;2.94;77.27;96775.34;4847237;29;20122;-68
2023/12/23 06:41:17;;;;;;;18.88;9.25;;;;;;;3.14;78.10;96788.50;4858201;29;20128;-70
2023/12/23 06:43:46;;;;;;;22.40;9.77;;;;;;;2.88;78.14;96753.25;4859637;29;20041;-69
2023/12/23 06:46:14;;;;;;;21.05;9.00;;;;;;;3.20;77.93;96810.63;4874534;29;20045;-70
2023/12/23 06:48:48;;;;;;;21.23;9.70;;;;;;;3.19;77.79;96811.53;4876861;29;20073;-70
2023/12/23 06:51:15;;;;;;;23.60;10.18;;;;;;;3.09;78.24;96802.38;4860408;29;20048;-69
2023/12/23 06:53:48;;;;;;;19.55;9.07;;;;;;;3.22;77.70;96813.16;4858814;29;20079;-70
2023/12/23 06:56:15;;;;;;;24.48;10.63;;;;;;;3.14;78.57;96787.69;4872693;29;20074;-70
2023/12/23 06:58:44;;;;;;;21.67;9.88;;;;;;;3.29;77.73;96815.53;4847516;29;20052;-70
2023/12/23 07:01:10;;;;;;;24.20;10.63;;;;;;;2.90;77.92;96736.06;4862143;29;20088;-70
2023/12/23 07:03:41;;;;;;;22.40;10.02;;;;;;;3.06;78.03;96761.34;4876072;29;20061;-70
2023/12/23 07:06:10;;;;;;;22.40;10.50;;;;;;;2.93;78.10;96756.53;4859183;29;20515;-70
2023/12/23 07:08:45;;;;;;;24.17;10.80;;;;;;;3.27;78.20;96806.19;4872747;29;20053;-70
2023/12/23 07:11:17;;;;;;;22.25;10.75;;;;;;;3.04;78.42;96765.66;4862108;29;20045;-71
2023/12/23 07:13:43;;;;;;;24.98;10.57;;;;;;;3.04;77.85;96774.25;4875363;29;20139;-69
2023/12/23 07:16:11;;;;;;;23.45;11.18;;;;;;;3.11;77.81;96780.06;4874108;29;20465;-71
2023/12/23 07:18:37;;;;;;;25.10;10.60;;;;;;;3.28;77.33;96811.25;4846522;29;20047;-68
2023/12/23 07:21:06;;;;;;;23.05;11.55;;;;;;;3.20;77.78;96795.19;4860220;29;20041;-70
2023/12/23 07:23:41;;;;;;;22.55;10.85;;;;;;;3.40;78.06;96827.25;4873554;29;20044;-70
2023/12/23 07:26:13;;;;;;;23.13;10.55;;;;;;;3.24;77.58;96812.22;4856188;29;20129;-70
2023/12/23 07:28:39;;;;;;;21.50;10.23;;;;;;;3.05;78.10;96781.06;4858081;29;20052;-70
2023/12/23 07:31:08;;;;;;;24.23;10.55;;;;;;;3.25;77.64;96813.09;4861547;29;20040;-69
2023/12/23 07:33:34;;;;;;;21.55;10.50;;;;;;;3.40;78.09;96834.97;4861709;29;20065;-71
2023/12/23 07:36:10;;;;;;;21.60;11.60;;;;;;;3.13;78.05;96791.97;4865760;29;20677;-74
2023/12/23 07:39:11;;;;;;;23.60;10.85;;;;;;;3.39;77.53;96826.38;4867668;29;20132;-73
2023/12/23 07:41:39;;;;;;;24.05;12.27;;;;;;;2.53;77.48;96688.28;4878539;29;20057;-73
2023/12/23 07:44:05;;;;;;;24.90;11.73;;;;;;;3.45;77.44;96836.50;4866611;29;20044;-72
2023/12/23 07:46:34;;;;;;;23.75;11.32;;;;;;;3.56;77.33;96864.50;4861647;29;20110;-69
2023/12/23 07:49:09;;;;;;;25.33;11.93;;;;;;;3.31;77.70;96824.03;4861967;29;20049;-72
2023/12/23 07:51:47;;;;;;;23.70;11.95;;;;;;;3.60;77.10;96857.53;4865833;29;20558;-72
2023/12/23 07:54:18;;;;;;;25.23;11.88;;;;;;;3.36;77.19;96839.31;4862969;29;20097;-71
2023/12/23 07:56:44;;;;;;;27.58;11.80;;;;;;;3.43;77.14;96833.13;4876901;29;21071;-69
2023/12/23 07:59:20;;;;;;;;;;;;;;;;;;;;;
2023/12/23 08:01:59;;;;;;;22.13;11.75;;;;;;;3.12;77.39;96784.31;4847403;29;20140;-69
2023/12/23 08:04:31;;;;;;;21.92;11.65;;;;;;;3.57;77.27;96840.47;4876674;29;20061;-71
2023/12/23 08:07:03;;;;;;;23.45;11.63;;;;;;;3.50;76.71;96838.13;4877366;29;20052;-73
2023/12/23 08:09:38;;;;;;;24.05;11.68;;;;;;;3.72;77.32;96870.06;4850432;29;20033;-70
2023/12/23 08:12:08;;;;;;;23.08;11.32;;;;;;;3.42;77.41;96816.03;4872788;29;20049;-68
2023/12/23 08:14:37;;;;;;;21.60;10.43;;;;;;;3.02;76.95;96750.31;4876390;29;20085;-71
2023/12/23 08:17:06;;;;;;;19.95;9.90;;;;;;;3.75;76.90;96874.28;4859348;29;20041;-71
2023/12/23 08:19:34;;;;;;;20.75;10.73;;;;;;;3.22;76.80;96783.16;4878680;29;20053;-70
2023/12/23 08:22:09;;;;;;;21.33;10.75;;;;;;;3.55;76.78;96844.81;4878004;29;20133;-72
2023/12/23 08:24:39;;;;;;;18.40;9.88;;;;;;;3.50;76.63;96851.81;4860974;29;20135;-71
2023/12/23 08:27:07;;;;;;;22.10;11.20;;;;;;;3.59;76.77;96868.69;4861893;29;20037;-71
2023/12/23 08:29:36;;;;;;;19.50;11.10;;;;;;;3.43;76.49;96835.72;4876571;29;20053;-71
2023/12/23 08:32:07;;;;;;;25.08;11.68;;;;;;;3.76;76.75;96881.09;4863114;29;20504;-70
2023/12/23 08:34:36;;;;;;;21.25;10.07;;;;;;;3.63;76.59;96866.91;4876652;29;20078;-71
2023/12/23 08:37:02;;;;;;;19.80;9.80;;;;;;;3.52;76.73;96828.63;4876647;29;20070;-73
2023/12/23 08:39:32;;;;;;;21.75;10.48;;;;;;;3.34;76.79;96801.69;4875892;29;20044;-71
2023/12/23 08:42:09;;;;;;;18.70;9.50;;;;;;;3.76;76.19;96886.25;4858206;29;20042;-70
2023/12/23 08:44:38;;;;;;;20.48;9.68;;;;;;;3.53;76.45;96849.16;4858588;29;20052;-73
2023/12/23 08:47:16;;;;;;;;;;;;;;;;;;;;;
2023/12/23 08:49:42;;;;;;;19.50;10.07;;;;;;;3.72;76.64;96864.94;4875854;29;20037;-71
2023/12/23 08:52:18;;;;;;;22.27;10.85;;;;;;;3.71;76.94;96846.94;4873890;29;20042;-70
2023/12/23 08:54:49;;;;;;;19.58;9.95;;;;;;;3.91;76.83;96884.97;4843984;29;20052;-71
2023/12/23 08:57:15;;;;;;;21.42;10.98;;;;;;;3.75;76.72;96856.25;4862512;29;20079;-72
2023/12/23 08:59:45;;;;;;;19.30;9.63;;;;;;;3.95;76.25;96883.16;4862416;29;20136;-70
2023/12/23 09:02:11;;;;;;;18.67;9.90;;;;;;;3.89;76.39;96890.16;4843188;29;20045;-72
2023/12/23 09:04:38;;;;;;;17.30;9.23;;;;;;;3.95;76.14;96904.59;4861411;29;20065;-69
2023/12/23 09:07:08;;;;;;;17.88;10.30;;;;;;;3.76;76.17;96887.06;4862714;29;20045;-70
2023/12/23 09:09:37;;;;;;;19.85;8.35;;;;;;;3.83;75.73;96880.06;4876526;29;20152;-73
2023/12/23 09:12:06;;;;;;;14.60;8.02;;;;;;;3.92;76.28;96884.09;4858963;29;20519;-70
2023/12/23 09:14:32;;;;;;;14.18;8.25;;;;;;;3.94;75.95;96895.19;4860755;29;20531;-72
2023/12/23 09:17:01;;;;;;;15.05;8.80;;;;;;;3.79;75.93;96870.72;4872461;29;20041;-71
2023/12/23 09:19:27;;;;;;;13.10;8.27;;;;;;;3.88;75.26;96883.31;4877022;29;20049;-69
2023/12/23 09:21:55;;;;;;;11.93;7.32;;;;;;;3.95;75.37;96901.16;4876349;29;20047;-71
2023/12/23 09:24:21;;;;;;;13.35;7.22;;;;;;;3.77;75.30;96868.19;4875926;29;20045;-70
2023/12/23 09:26:50;;;;;;;12.65;7.28;;;;;;;3.77;75.22;96868.19;4862851;29;20797;-69
2023/12/23 09:29:19;;;;;;;13.93;7.65;;;;;;;4.02;75.77;96905.25;4875547;29;20048;-70
2023/12/23 09:31:46;;;;;;;12.63;6.35;;;;;;;3.64;75.64;96843.72;4873868;29;20045;-69
2023/12/23 09:34:12;;;;;;;9.20;5.70;;;;;;;3.94;75.32;96884.03;4860012;29;20040;-68
2023/12/23 09:36:44;;;;;;;8.65;5.47;;;;;;;4.06;75.18;96894.81;4876095;29;20113;-70
2023/12/23 09:39:11;;;;;;;10.57;6.30;;;;;;;3.64;74.95;96835.16;4845190;29;20623;-69
2023/12/23 09:41:41;;;;;;;9.27;5.30;;;;;;;3.94;75.18;96884.91;4877508;29;20100;-74
2023/12/23 09:44:07;;;;;;;8.75;5.03;;;;;;;3.79;74.77;96859.59;4872330;29;20461;-71
2023/12/23 09:46:36;;;;;;;8.20;5.25;;;;;;;4.06;74.71;96904.28;4874126;29;20127;-71
2023/12/23 09:49:11;;;;;;;7.07;4.60;;;;;;;3.85;74.69;96870.56;4844748;29;20539;-72
2023/12/23 09:51:41;;;;;;;7.63;4.82;;;;;;;4.02;74.67;96888.06;4846610;29;20068;-70
2023/12/23 09:54:15;;;;;;;8.38;5.03;;;;;;;4.10;74.68;96923.88;4862757;29;20335;-70
2023/12/23 09:56:42;;;;;;;7.50;4.32;;;;;;;3.71;74.33;96855.53;4846951;29;20083;-70
2023/12/23 09:59:13;;;;;;;7.15;4.65;;;;;;;3.71;74.49;96847.81;4865065;29;20068;-69
2023/12/23 10:01:39;;;;;;;8.27;5.15;;;;;;;3.70;74.21;96834.97;4844903;29;20094;-71
2023/12/23 10:04:15;;;;;;;8.20;4.72;;;;;;;4.02;74.09;96893.22;4862478;29;20772;-68
2023/12/23 10:06:48;;;;;;;7.47;4.57;;;;;;;4.15;74.68;96909.16;4858066;29;20397;-68
2023/12/23 10:09:19;;;;;;;7.80;4.78;;;;;;;4.11;74.38;96909.28;4862692;29;20048;-71
2023/12/23 10:11:45;;;;;;;6.95;4.32;;;;;;;3.66;74.30;96817.94;4863494;29;20037;-70
2023/12/23 10:14:12;;;;;;;6.18;4.28;;;;;;;4.10;73.57;96899.88;4865113;29;20143;-70
2023/12/23 10:16:41;;;;;;;7.00;4.80;;;;;;;4.16;73.44;96904.84;4854319;29;20040;-70
2023/12/23 10:19:08;;;;;;;5.97;4.53;;;;;;;3.89;73.63;96846.41;4858687;29;20072;-69
2023/12/23 10:21:41;;;;;;;8.68;4.50;;;;;;;4.17;73.20;96880.81;4873717;29;20045;-70
2023/12/23 10:24:09;;;;;;;6.05;4.13;;;;;;;4.17;73.11;96894.50;4857874;29;20512;-74
2023/12/23 10:26:37;;;;;;;6.40;4.30;;;;;;;3.82;73.10;96842.34;4851916;29;20609;-77
2023/12/23 10:29:05;;;;;;;6.93;4.35;;;;;;;4.21;73.54;96896.09;4854644;29;20042;-74
2023/12/23 10:31:32;;;;;;;4.82;3.65;;;;;;;4.28;72.84;96903.66;4867411;29;20245;-73
2023/12/23 10:34:10;;;;;;;6.43;4.07;;;;;;;4.14;72.52;96894.59;4852106;29;20045;-74
2023/12/23 10:36:41;;;;;;;5.28;3.83;;;;;;;4.10;72.45;96885.25;4867184;29;20052;-75
2023/12/23 10:39:16;;;;;;;5.18;3.33;;;;;;;3.81;72.40;96853.53;4867545;29;20067;-72
2023/12/23 10:41:51;;;;;;;4.68;3.55;;;;;;;4.02;72.44;96876.94;4868820;29;20140;-74
2023/12/23 10:44:18;;;;;;;5.13;3.25;;;;;;;4.22;72.75;96920.97;4868290;29;20048;-73
2023/12/23 10:46:46;;;;;;;3.92;2.97;;;;;;;3.85;71.67;96878.28;4837856;29;20045;-73
2023/12/23 10:49:16;;;;;;;4.40;3.67;;;;;;;3.88;71.90;96897.91;4866416;29;20114;-74
2023/12/23 10:51:43;;;;;;;4.20;3.13;;;;;;;4.10;71.68;96941.06;4852452;29;20358;-73
2023/12/23 10:54:10;;;;;;;4.53;2.80;;;;;;;3.88;71.58;96905.63;4850895;29;20049;-73
2023/12/23 10:56:39;;;;;;;4.15;2.90;;;;;;;3.91;71.37;96911.53;4866456;29;20055;-74
2023/12/23 10:59:09;;;;;;;4.07;2.80;;;;;;;3.83;71.77;96912.63;4850435;29;20124;-75
2023/12/23 11:01:38;;;;;;;3.95;3.08;;;;;;;3.76;71.16;96912.78;4852703;29;20112;-75
2023/12/23 11:04:07;;;;;;;3.75;2.90;;;;;;;3.99;71.51;96939.63;4870021;29;20120;-78
2023/12/23 11:06:39;;;;;;;3.58;2.95;;;;;;;3.76;71.63;96905.06;4854138;29;20089;-79
2023/12/23 11:09:29;;;;;;;3.85;3.25;;;;;;;4.10;71.61;96951.34;4868224;29;20582;-83
2023/12/23 11:12:18;;;;;;;4.47;3.20;;;;;;;4.15;70.36;96940.03;4856822;29;20114;-77
2023/12/23 11:15:04;;;;;;;5.65;3.92;;;;;;;4.08;70.70;96923.09;4869218;29;20065;-76
2023/12/23 11:17:54;;;;;;;6.40;4.35;;;;;;;4.00;71.30;96910.44;4868124;29;20045;-69
2023/12/23 11:20:47;;;;;;;5.82;4.25;;;;;;;4.31;70.65;96944.72;4853425;29;20446;-75
2023/12/23 11:23:35;;;;;;;6.03;4.75;;;;;;;4.35;70.87;96947.19;4869061;29;20052;-69
2023/12/23 11:26:02;;;;;;;9.20;4.82;;;;;;;4.13;70.26;96923.78;4835971;29;20045;-73
2023/12/23 11:28:31;;;;;;;10.40;4.72;;;;;;;4.04;70.47;96913.78;4850505;29;20105;-68
2023/12/23 11:30:59;;;;;;;5.85;4.43;;;;;;;3.94;70.75;96892.59;4850668;29;20518;-69
2023/12/23 11:33:32;;;;;;;8.05;5.32;;;;;;;4.21;70.33;96923.56;4839314;29;20765;-67
2023/12/23 11:35:59;;;;;;;7.60;4.30;;;;;;;4.09;70.35;96885.31;4851745;29;20123;-69
2023/12/23 11:38:28;;;;;;;6.75;4.40;;;;;;;4.35;70.29;96944.59;4865449;29;20096;-69
2023/12/23 11:40:55;;;;;;;8.18;4.88;;;;;;;4.42;70.19;96955.56;4848101;29;20499;-74
2023/12/23 11:43:22;;;;;;;5.90;4.35;;;;;;;4.48;70.49;96954.53;4866375;29;20049;-71
2023/12/23 11:45:49;;;;;;;6.85;4.63;;;;;;;4.33;70.58;96923.22;4838567;29;20877;-70
2023/12/23 11:48:18;;;;;;;6.15;4.40;;;;;;;4.38;70.14;96928.22;4864413;29;20047;-70
2023/12/23 11:50:44;;;;;;;5.63;4.15;;;;;;;4.42;70.65;96926.38;4866417;29;20033;-69